Time;durP1;ratioP1;P1;durP2;ratioP2;P2;SDS_P1;SDS_P2;PMS_P1;PMS_P2;Temp;Humidity;BMP_temperature;BMP_pressure;BME280_temperature;BME280_humidity;BME280_pressure;Samples;Min_cycle;Max_cycle;Signal;HPM_P1;HPM_P2
2023/08/28 00:00:35;;;;;;;9.63;6.32;;;;;;;28.76;49.29;99458.59;5075005;28;20468;-85
2023/08/28 00:03:03;;;;;;;8.45;6.32;;;;;;;28.84;49.08;99443.94;5075158;28;20051;-87
2023/08/28 00:05:32;;;;;;;7.38;6.03;;;;;;;28.82;50.33;99435.16;5075069;28;20052;-86
2023/08/28 00:08:03;;;;;;;8.45;6.78;;;;;;;28.75;50.23;99428.88;5075046;28;20056;-89
2023/08/28 00:10:34;;;;;;;;;;;;;;;28.70;52.43;99445.03;5075465;28;20431;-85
2023/08/28 00:13:02;;;;;;;9.70;6.50;;;;;;;28.55;53.13;99455.00;5073513;28;19921;-83
2023/08/28 00:15:31;;;;;;;8.95;6.68;;;;;;;28.30;55.54;99461.91;5074990;28;20036;-86
2023/08/28 00:17:59;;;;;;;12.73;6.70;;;;;;;28.35;55.00;99467.00;5075023;28;20045;-85
2023/08/28 00:20:27;;;;;;;8.07;6.65;;;;;;;28.51;55.13;99465.53;5074701;28;20056;-89
2023/08/28 00:22:55;;;;;;;10.65;6.97;;;;;;;28.46;55.97;99440.69;5074482;28;20060;-85
2023/08/28 00:25:23;;;;;;;10.38;6.82;;;;;;;28.47;56.66;99391.63;5074819;28;20479;-87
2023/08/28 00:27:51;;;;;;;10.00;6.50;;;;;;;28.37;57.73;99399.88;5073210;28;20395;-86
2023/08/28 00:30:19;;;;;;;8.50;6.85;;;;;;;28.19;59.81;99405.81;5074775;28;20737;-87
2023/08/28 00:32:48;;;;;;;10.70;8.00;;;;;;;27.92;62.71;99428.38;5073893;28;20052;-90
2023/08/28 00:35:16;;;;;;;11.55;8.13;;;;;;;27.73;64.41;99428.69;5073707;28;20052;-87
2023/08/28 00:37:45;;;;;;;16.30;9.10;;;;;;;27.76;67.06;99435.47;5074936;28;20048;-89
2023/08/28 00:40:13;;;;;;;10.20;7.88;;;;;;;27.71;66.99;99422.69;5074540;28;20041;-87
2023/08/28 00:42:42;;;;;;;8.77;7.80;;;;;;;27.54;67.87;99434.97;5074733;28;20047;-86
2023/08/28 00:45:11;;;;;;;12.68;8.02;;;;;;;27.58;68.25;99430.94;5057082;28;20068;-89
2023/08/28 00:47:44;;;;;;;9.90;8.10;;;;;;;27.65;70.07;99444.06;5073540;28;20170;-87
2023/08/28 00:50:12;;;;;;;13.38;8.75;;;;;;;27.67;70.53;99438.03;5073123;28;20045;-86
2023/08/28 00:52:40;;;;;;;12.90;10.43;;;;;;;27.15;76.85;99417.50;5074501;28;20510;-88
2023/08/28 00:55:09;;;;;;;14.68;10.30;;;;;;;27.09;77.56;99391.91;5073184;28;20045;-84
2023/08/28 00:57:37;;;;;;;13.57;10.07;;;;;;;27.22;78.76;99370.47;5073736;28;20044;-86
2023/08/28 01:00:10;;;;;;;15.90;12.00;;;;;;;27.01;83.26;99335.06;5088569;28;20044;-84
2023/08/28 01:02:40;;;;;;;13.27;10.23;;;;;;;26.92;80.57;99315.16;5074141;28;20048;-84
2023/08/28 01:05:08;;;;;;;13.05;10.80;;;;;;;27.00;83.52;99280.16;5089649;28;20510;-85
2023/08/28 01:08:32;;;;;;;15.85;12.45;;;;;;;26.87;84.53;99287.56;5072540;28;20056;-87
2023/08/28 01:11:17;;;;;;;16.15;12.02;;;;;;;26.91;84.59;99333.19;5042551;28;20052;-85
2023/08/28 01:14:01;;;;;;;16.55;12.32;;;;;;;26.59;88.02;99348.47;5072675;28;20530;-88
2023/08/28 01:16:31;;;;;;;15.18;11.93;;;;;;;26.65;86.00;99343.97;5073808;28;20056;-85
2023/08/28 01:18:59;;;;;;;15.02;11.73;;;;;;;26.81;84.93;99340.53;5089206;28;20036;-87
2023/08/28 01:21:31;;;;;;;13.88;10.50;;;;;;;26.59;84.93;99348.47;5073558;28;20399;-85
2023/08/28 01:24:03;;;;;;;13.65;10.45;;;;;;;26.66;82.99;99353.97;5089207;28;20053;-84
2023/08/28 01:26:31;;;;;;;12.48;9.63;;;;;;;26.79;81.50;99320.53;5089236;28;20063;-84
2023/08/28 01:29:03;;;;;;;14.27;10.07;;;;;;;26.46;80.80;99365.03;5076864;28;20063;-93
2023/08/28 01:31:31;;;;;;;13.18;9.57;;;;;;;26.14;82.07;99324.91;5058886;28;20059;-90
2023/08/28 01:33:59;;;;;;;10.95;8.98;;;;;;;26.06;81.99;99309.41;5076466;28;20049;-92
2023/08/28 01:36:40;;;;;;;14.52;9.30;;;;;;;26.11;79.70;99328.56;5073616;28;20041;-91
2023/08/28 01:39:20;;;;;;;13.00;9.13;;;;;;;26.50;78.43;99358.19;5089764;28;20375;-89
2023/08/28 01:41:52;;;;;;;9.70;8.48;;;;;;;26.36;79.42;99355.56;5072768;28;20056;-90
2023/08/28 01:44:22;;;;;;;11.38;8.88;;;;;;;26.26;78.62;99346.88;5089205;28;20044;-92
2023/08/28 01:46:51;;;;;;;13.68;8.00;;;;;;;26.54;76.95;99367.34;5056092;28;20056;-92
2023/08/28 01:49:20;;;;;;;10.52;8.15;;;;;;;26.45;76.18;99386.69;5073973;28;20040;-92
2023/08/28 01:51:48;;;;;;;10.25;7.95;;;;;;;26.10;77.11;99397.06;5039744;28;20075;-88
2023/08/28 01:54:17;;;;;;;11.57;8.80;;;;;;;26.02;76.05;99404.75;5075458;28;20041;-93
2023/08/28 01:56:45;;;;;;;12.05;8.15;;;;;;;26.26;75.19;99404.94;5064359;28;20032;-94
2023/08/28 01:59:19;;;;;;;11.75;8.15;;;;;;;26.21;74.61;99433.38;5081385;28;20052;-93
2023/08/28 02:01:51;;;;;;;14.73;8.90;;;;;;;26.16;75.66;99424.22;5075113;28;20052;-90
2023/08/28 02:04:19;;;;;;;11.63;8.38;;;;;;;26.25;76.89;99445.41;5071859;28;20045;-90
2023/08/28 02:06:48;;;;;;;17.60;9.95;;;;;;;26.03;80.84;99423.16;5055359;28;20059;-88
2023/08/28 02:09:17;;;;;;;14.18;9.40;;;;;;;25.77;83.14;99372.94;5088074;28;20044;-87
2023/08/28 02:11:46;;;;;;;16.48;10.20;;;;;;;25.65;85.93;99353.84;5072845;28;20044;-88
2023/08/28 02:14:15;;;;;;;14.73;9.95;;;;;;;25.61;86.50;99361.50;5072785;28;20052;-89
2023/08/28 02:16:43;;;;;;;20.02;9.40;;;;;;;25.41;87.93;99355.63;5088479;28;20049;-85
2023/08/28 02:19:11;;;;;;;14.30;10.20;;;;;;;25.21;90.04;99314.16;5072674;28;20036;-86
2023/08/28 02:21:40;;;;;;;10.98;9.50;;;;;;;25.19;91.01;99300.59;5087635;28;20052;-91
2023/08/28 02:24:08;;;;;;;15.73;8.75;;;;;;;25.35;90.57;99321.66;5071489;28;20414;-87
2023/08/28 02:26:36;;;;;;;16.17;9.93;;;;;;;25.62;89.10;99349.84;5061766;28;20041;-82
2023/08/28 02:29:04;;;;;;;17.38;10.52;;;;;;;25.34;91.24;99339.66;5082943;28;20051;-81
2023/08/28 02:31:32;;;;;;;12.00;7.18;;;;;;;25.05;91.66;99391.03;5072102;28;20036;-82
2023/08/28 02:34:00;;;;;;;6.57;5.07;;;;;;;24.80;93.86;99382.75;5082599;28;20426;-87
2023/08/28 02:36:29;;;;;;;11.45;7.03;;;;;;;24.76;95.33;99360.41;5071045;28;20045;-84
2023/08/28 02:38:57;;;;;;;10.85;7.05;;;;;;;24.63;94.93;99365.63;5090353;28;20055;-86
2023/08/28 02:41:25;;;;;;;13.15;7.28;;;;;;;24.82;94.73;99367.19;5092491;28;20047;-87
2023/08/28 02:43:53;;;;;;;11.52;6.85;;;;;;;24.93;95.29;99350.31;5092659;28;20040;-85
2023/08/28 02:46:21;;;;;;;14.15;7.65;;;;;;;24.82;96.41;99314.03;5091504;28;20055;-81
2023/08/28 02:48:49;;;;;;;12.07;8.20;;;;;;;24.71;96.27;99276.91;5091412;28;20055;-85
2023/08/28 02:51:17;;;;;;;13.23;9.32;;;;;;;24.54;94.45;99321.34;5092474;28;20052;-87
2023/08/28 02:53:45;;;;;;;13.45;9.10;;;;;;;24.40;95.37;99311.00;5091255;28;20059;-85
2023/08/28 02:56:25;;;;;;;12.23;9.30;;;;;;;24.55;92.95;99313.75;5091311;28;20036;-87
2023/08/28 02:58:53;;;;;;;13.90;8.95;;;;;;;24.34;95.86;99309.84;5091070;28;20047;-87
2023/08/28 03:01:22;;;;;;;12.65;8.80;;;;;;;24.23;98.48;99325.84;5091366;28;20036;-86
2023/08/28 03:03:50;;;;;;;12.38;9.48;;;;;;;24.40;97.04;99319.41;5074220;28;20055;-88
2023/08/28 03:06:18;;;;;;;15.38;9.77;;;;;;;24.09;99.88;99313.53;5092399;28;20047;-86
2023/08/28 03:08:46;;;;;;;16.67;9.68;;;;;;;24.12;100.00;99309.13;5090626;28;20403;-86
2023/08/28 03:11:14;;;;;;;14.75;9.85;;;;;;;24.26;98.68;99285.94;5092188;28;20048;-87
2023/08/28 03:13:42;;;;;;;13.73;9.85;;;;;;;24.25;98.54;99289.94;5091073;28;20044;-86
2023/08/28 03:16:10;;;;;;;16.38;10.38;;;;;;;24.38;96.62;99310.63;5091047;28;20056;-82
2023/08/28 03:18:39;;;;;;;14.48;10.23;;;;;;;24.68;95.35;99297.31;5091062;28;20052;-87
2023/08/28 03:21:07;;;;;;;12.10;10.25;;;;;;;24.54;95.38;99324.13;5094079;28;20044;-86
2023/08/28 03:23:35;;;;;;;13.98;10.52;;;;;;;24.58;95.78;99334.50;5077955;28;20052;-86
2023/08/28 03:26:03;;;;;;;14.60;10.25;;;;;;;24.69;95.65;99324.84;5095007;28;20506;-86
2023/08/28 03:28:31;;;;;;;16.27;10.75;;;;;;;24.94;94.87;99301.56;5111957;28;20501;-85
2023/08/28 03:31:00;;;;;;;12.43;9.93;;;;;;;25.17;93.60;99268.63;5096108;28;20483;-83
2023/08/28 03:33:28;;;;;;;13.40;10.45;;;;;;;25.24;93.98;99257.38;5096050;28;20043;-86
2023/08/28 03:35:56;;;;;;;14.48;9.95;;;;;;;25.31;92.64;99380.47;5094887;28;20041;-85
2023/08/28 03:38:25;;;;;;;10.70;8.07;;;;;;;24.23;95.50;99451.63;5096256;28;20040;-88
2023/08/28 03:40:53;;;;;;;13.15;7.70;;;;;;;24.57;94.16;99437.19;5095940;28;20048;-92
2023/08/28 03:43:21;;;;;;;11.77;7.90;;;;;;;24.74;92.57;99381.59;5078245;28;20052;-85
2023/08/28 03:45:49;;;;;;;14.18;8.30;;;;;;;24.55;93.43;99408.84;5095970;28;20048;-87
2023/08/28 03:48:17;;;;;;;12.82;9.18;;;;;;;24.78;92.31;99401.94;5077692;28;20482;-91
2023/08/28 03:50:46;;;;;;;15.02;9.35;;;;;;;24.53;93.56;99392.44;5077809;28;20052;-89
2023/08/28 03:53:14;;;;;;;14.57;8.88;;;;;;;24.28;96.11;99384.13;5094587;28;20055;-90
2023/08/28 03:55:41;;;;;;;14.13;8.82;;;;;;;24.18;97.12;99380.16;5061103;28;20048;-88
2023/08/28 03:58:10;;;;;;;12.70;8.38;;;;;;;24.00;98.09;99372.59;5095631;28;20059;-92
2023/08/28 04:00:41;;;;;;;13.13;8.93;;;;;;;24.02;98.33;99367.41;5094790;28;20478;-92
2023/08/28 04:03:09;;;;;;;13.52;9.57;;;;;;;23.98;99.51;99368.59;5094267;28;20052;-90
2023/08/28 04:05:42;;;;;;;12.68;9.20;;;;;;;24.10;98.77;99371.00;5077692;28;20066;-92
2023/08/28 04:08:11;;;;;;;13.88;9.90;;;;;;;24.00;99.01;99367.00;5077653;28;20055;-91
2023/08/28 04:10:41;;;;;;;14.10;9.10;;;;;;;24.00;99.72;99367.00;5094291;28;20372;-91
2023/08/28 04:13:09;;;;;;;12.63;9.75;;;;;;;24.25;98.74;99357.00;5077784;28;20052;-91
2023/08/28 04:15:38;;;;;;;12.70;9.35;;;;;;;24.00;100.00;99347.44;5095397;28;20062;-95
2023/08/28 04:18:05;;;;;;;12.30;9.45;;;;;;;23.98;100.00;99346.25;5077863;28;20052;-92
2023/08/28 04:20:33;;;;;;;15.95;9.80;;;;;;;23.68;100.00;99330.75;5078017;28;20048;-92
2023/08/28 04:23:02;;;;;;;12.13;9.00;;;;;;;23.85;100.00;99329.91;5077206;28;20048;-91
2023/08/28 04:25:30;;;;;;;14.10;9.60;;;;;;;23.99;100.00;99339.47;5060863;28;20051;-92
2023/08/28 04:27:59;;;;;;;12.38;8.75;;;;;;;24.20;100.00;99346.25;5093896;28;20395;-86
2023/08/28 04:30:27;;;;;;;14.13;9.13;;;;;;;24.11;100.00;99357.84;5093278;28;20048;-90
2023/08/28 04:32:54;;;;;;;13.65;10.23;;;;;;;24.02;100.00;99347.06;5076849;28;20040;-89
2023/08/28 04:35:23;;;;;;;14.20;10.10;;;;;;;24.02;100.00;99341.47;5093216;28;20398;-89
2023/08/28 04:37:51;;;;;;;13.32;10.02;;;;;;;23.93;100.00;99318.72;5094852;28;20059;-87
2023/08/28 04:40:19;;;;;;;14.98;11.23;;;;;;;23.94;100.00;99321.13;5093545;28;20039;-88
2023/08/28 04:42:47;;;;;;;17.08;11.50;;;;;;;24.01;100.00;99312.72;5077044;28;20055;-86
2023/08/28 04:45:15;;;;;;;16.23;11.15;;;;;;;24.25;100.00;99268.34;5093519;28;20391;-83
2023/08/28 04:47:43;;;;;;;16.80;11.63;;;;;;;24.18;100.00;99262.00;5094710;28;20055;-85
2023/08/28 04:50:11;;;;;;;16.48;11.60;;;;;;;24.30;100.00;99258.75;5093286;28;20036;-87
2023/08/28 04:52:39;;;;;;;17.40;11.88;;;;;;;24.15;100.00;99256.00;5094629;28;20493;-86
2023/08/28 04:55:07;;;;;;;16.40;11.98;;;;;;;24.20;100.00;99260.41;5092954;28;20040;-85
2023/08/28 04:57:35;;;;;;;17.10;11.73;;;;;;;24.09;100.00;99254.84;5104419;28;20032;-88
2023/08/28 05:00:05;;;;;;;15.82;10.82;;;;;;;24.20;100.00;99226.88;5100604;28;20043;-85
2023/08/28 05:02:33;;;;;;;18.88;11.90;;;;;;;24.42;100.00;99277.06;5112920;28;20036;-86
2023/08/28 05:05:03;;;;;;;15.65;12.00;;;;;;;24.33;100.00;99280.28;5093651;28;20041;-86
2023/08/28 05:07:31;;;;;;;18.05;11.30;;;;;;;24.43;100.00;99265.47;5092845;28;20398;-86
2023/08/28 05:09:59;;;;;;;17.00;12.30;;;;;;;24.63;100.00;99287.34;5092883;28;20074;-88
2023/08/28 05:12:26;;;;;;;17.15;11.43;;;;;;;24.68;100.00;99275.72;5097950;28;20062;-89
2023/08/28 05:14:55;;;;;;;18.90;12.07;;;;;;;24.59;100.00;99283.78;5096206;28;20039;-89
2023/08/28 05:17:22;;;;;;;16.00;11.40;;;;;;;24.42;100.00;99275.06;5107571;28;20525;-88
2023/08/28 05:19:51;;;;;;;17.35;12.50;;;;;;;24.66;100.00;99266.94;5094000;28;20486;-86
2023/08/28 05:22:20;;;;;;;15.43;11.60;;;;;;;24.45;100.00;99261.47;5089495;28;20037;-88
2023/08/28 05:24:48;;;;;;;19.15;12.25;;;;;;;24.56;100.00;99262.22;5073811;28;20530;-89
2023/08/28 05:27:16;;;;;;;17.90;12.13;;;;;;;24.70;100.00;99272.53;5073762;28;20048;-88
2023/08/28 05:29:47;;;;;;;18.02;12.80;;;;;;;24.64;100.00;99276.94;5100626;28;20062;-86
2023/08/28 05:32:15;;;;;;;14.02;11.10;;;;;;;24.65;100.00;99275.75;5096326;28;20040;-88
2023/08/28 05:34:43;;;;;;;18.70;11.88;;;;;;;24.53;100.00;99272.22;5066034;28;20051;-87
2023/08/28 05:37:11;;;;;;;14.88;10.75;;;;;;;24.70;100.00;99270.50;5092598;28;20055;-89
2023/08/28 05:39:39;;;;;;;16.77;11.93;;;;;;;24.34;100.00;99281.88;5123402;28;20048;-88
2023/08/28 05:42:07;;;;;;;14.65;11.13;;;;;;;24.51;100.00;99293.41;5117298;28;20420;-90
2023/08/28 05:44:36;;;;;;;16.55;9.73;;;;;;;24.24;100.00;99283.53;5113494;28;20039;-91
2023/08/28 05:47:04;;;;;;;15.02;10.27;;;;;;;24.41;100.00;99303.44;5113072;28;20040;-86
2023/08/28 05:49:33;;;;;;;14.27;8.90;;;;;;;24.41;99.04;99281.88;5112851;28;20389;-86
2023/08/28 05:52:03;;;;;;;11.60;8.15;;;;;;;24.58;95.66;99279.38;5112662;28;20048;-86
2023/08/28 05:54:31;;;;;;;9.90;7.55;;;;;;;24.39;95.16;99287.06;5096054;28;20039;-90
2023/08/28 05:56:58;;;;;;;10.15;7.68;;;;;;;24.61;95.18;99277.75;5095479;28;20055;-88
2023/08/28 05:59:27;;;;;;;12.63;7.95;;;;;;;24.59;94.24;99289.38;5112267;28;20055;-87
2023/08/28 06:01:55;;;;;;;11.48;7.70;;;;;;;24.50;95.69;99283.41;5113339;28;20040;-89
2023/08/28 06:04:23;;;;;;;10.88;7.10;;;;;;;24.17;97.31;99294.75;5112336;28;20065;-90
2023/08/28 06:06:51;;;;;;;14.13;7.43;;;;;;;24.36;96.31;99290.69;5095168;28;20051;-89
2023/08/28 06:09:18;;;;;;;13.73;7.53;;;;;;;24.53;95.67;99288.19;5113435;28;20482;-87
2023/08/28 06:11:46;;;;;;;11.32;7.05;;;;;;;24.73;93.12;99290.50;5113329;28;20063;-86
2023/08/28 06:14:14;;;;;;;13.70;7.03;;;;;;;24.46;93.64;99282.63;5095296;28;20050;-88
2023/08/28 06:16:42;;;;;;;8.48;6.07;;;;;;;24.36;94.86;99285.09;5111988;28;20062;-88
2023/08/28 06:19:10;;;;;;;12.27;6.55;;;;;;;24.61;95.32;99278.56;5113069;28;20050;-88
2023/08/28 06:21:43;;;;;;;12.80;6.60;;;;;;;24.86;93.33;99271.22;5113158;28;20078;-87
2023/08/28 06:24:12;;;;;;;9.75;5.72;;;;;;;25.09;91.44;99298.66;5095005;28;20046;-87
2023/08/28 06:26:41;;;;;;;13.55;6.13;;;;;;;25.36;90.19;99301.66;5113005;28;20048;-88
2023/08/28 06:29:09;;;;;;;8.77;5.22;;;;;;;25.39;89.33;99314.03;5097668;28;20051;-87
2023/08/28 06:31:37;;;;;;;5.70;4.88;;;;;;;25.35;88.37;99302.88;5091150;28;20367;-88
2023/08/28 06:34:05;;;;;;;5.70;4.70;;;;;;;25.32;87.70;99309.28;5092436;28;20375;-87
2023/08/28 06:36:33;;;;;;;7.40;4.70;;;;;;;25.41;86.10;99317.19;5092293;28;20482;-87
2023/08/28 06:39:02;;;;;;;7.35;4.80;;;;;;;25.61;86.43;99305.47;5092334;28;20051;-88
2023/08/28 06:41:30;;;;;;;8.55;5.25;;;;;;;25.72;86.42;99305.34;5092270;28;20036;-86
2023/08/28 06:44:05;;;;;;;7.38;4.53;;;;;;;25.81;85.34;99307.69;5090969;28;20122;-87
2023/08/28 06:46:33;;;;;;;5.55;4.13;;;;;;;25.87;82.69;99314.41;5092220;28;20498;-87
2023/08/28 06:49:01;;;;;;;7.95;4.82;;;;;;;25.74;83.75;99317.75;5091000;28;20040;-86
2023/08/28 06:51:29;;;;;;;8.50;4.30;;;;;;;26.00;83.02;99309.09;5092574;28;20380;-86
2023/08/28 06:53:57;;;;;;;5.65;4.75;;;;;;;26.23;81.91;99308.44;5090843;28;20040;-86
2023/08/28 06:56:26;;;;;;;6.07;4.13;;;;;;;26.30;81.11;99301.94;5088736;28;20051;-86
2023/08/28 06:59:06;;;;;;;5.93;4.25;;;;;;;26.44;82.97;99295.34;5090053;28;20888;-87
2023/08/28 07:01:36;;;;;;;8.07;4.95;;;;;;;26.44;80.04;99295.34;5091548;28;20518;-86
2023/08/28 07:04:08;;;;;;;6.68;4.22;;;;;;;26.46;79.15;99292.94;5091690;28;20074;-87
2023/08/28 07:06:36;;;;;;;7.45;4.10;;;;;;;26.42;78.86;99278.16;5091461;28;20055;-87
2023/08/28 07:09:04;;;;;;;5.88;4.55;;;;;;;26.54;78.97;99286.00;5090911;28;20372;-86
2023/08/28 07:11:33;;;;;;;8.40;4.47;;;;;;;26.62;79.11;99283.09;5091959;28;20052;-87
2023/08/28 07:14:01;;;;;;;6.22;4.03;;;;;;;26.69;77.80;99292.19;5091795;28;20125;-88
2023/08/28 07:16:29;;;;;;;6.10;3.75;;;;;;;26.60;73.52;99288.34;5091423;28;20498;-87
2023/08/28 07:18:57;;;;;;;7.15;3.70;;;;;;;26.52;74.94;99290.44;5091419;28;20048;-87
2023/08/28 07:21:26;;;;;;;6.85;5.13;;;;;;;26.40;76.48;99301.00;5091741;28;20040;-87
2023/08/28 07:23:54;;;;;;;6.10;4.60;;;;;;;26.55;74.18;99292.41;5090412;28;20475;-87
2023/08/28 07:26:22;;;;;;;5.53;4.18;;;;;;;26.55;75.11;99296.00;5091783;28;20040;-87
2023/08/28 07:28:50;;;;;;;6.10;4.07;;;;;;;26.59;73.98;99297.97;5091087;28;20407;-87
2023/08/28 07:31:19;;;;;;;5.82;3.97;;;;;;;26.76;73.54;99299.72;5091774;28;20036;-90
2023/08/28 07:33:47;;;;;;;4.50;4.03;;;;;;;26.77;72.90;99295.69;5091714;28;20048;-86
2023/08/28 07:36:23;;;;;;;9.77;5.18;;;;;;;26.79;71.92;99296.06;5090589;28;20683;-87
2023/08/28 07:38:51;;;;;;;6.82;4.72;;;;;;;26.84;71.39;99306.81;5090313;28;20048;-85
2023/08/28 07:41:20;;;;;;;6.50;4.65;;;;;;;26.92;70.98;99301.94;5089376;28;20491;-85
2023/08/28 07:43:48;;;;;;;9.32;4.88;;;;;;;26.72;71.85;99293.38;5091064;28;20491;-88
2023/08/28 07:46:17;;;;;;;6.47;4.90;;;;;;;26.97;69.88;99300.66;5069941;28;20048;-87
2023/08/28 07:48:47;;;;;;;7.65;5.03;;;;;;;26.94;71.25;99296.66;5070553;28;20040;-88
2023/08/28 07:51:16;;;;;;;9.35;4.82;;;;;;;27.15;68.37;99296.75;5052634;28;20037;-87
2023/08/28 07:53:46;;;;;;;6.35;4.38;;;;;;;27.07;67.25;99291.28;5071592;28;20052;-86
2023/08/28 07:56:14;;;;;;;7.15;4.68;;;;;;;27.10;67.59;99287.63;5076676;28;20048;-82
2023/08/28 07:58:46;;;;;;;8.85;5.00;;;;;;;27.23;68.56;99287.03;5070252;28;20418;-84
2023/08/28 08:01:14;;;;;;;7.97;4.97;;;;;;;27.25;69.08;99276.16;5069975;28;20063;-87
2023/08/28 08:03:42;;;;;;;8.60;4.47;;;;;;;27.21;67.44;99275.41;5070748;28;20045;-83
2023/08/28 08:06:10;;;;;;;6.63;5.00;;;;;;;27.09;69.36;99288.03;5072662;28;20044;-85
2023/08/28 08:08:39;;;;;;;8.73;5.20;;;;;;;27.23;68.19;99282.19;5086860;28;20044;-90
2023/08/28 08:11:07;;;;;;;8.77;5.03;;;;;;;27.38;67.01;99279.16;5081064;28;20040;-87
2023/08/28 08:13:35;;;;;;;7.35;4.28;;;;;;;27.38;66.07;99265.09;5076859;28;20056;-87
2023/08/28 08:16:06;;;;;;;8.60;4.97;;;;;;;27.30;64.89;99256.00;5093544;28;20051;-82
2023/08/28 08:18:36;;;;;;;8.57;4.63;;;;;;;27.55;65.80;99253.94;5073846;28;20041;-88
2023/08/28 08:21:04;;;;;;;7.05;4.82;;;;;;;27.44;65.96;99246.53;5072446;28;20056;-85
2023/08/28 08:23:32;;;;;;;8.48;5.05;;;;;;;27.59;64.79;99233.06;5072828;28;20399;-86
2023/08/28 08:26:01;;;;;;;6.20;4.57;;;;;;;27.66;64.13;99243.34;5074219;28;20052;-88
2023/08/28 08:28:30;;;;;;;5.38;4.18;;;;;;;27.49;63.85;99242.44;5073076;28;20040;-87
2023/08/28 08:30:58;;;;;;;6.43;4.35;;;;;;;27.42;64.72;99236.94;5073317;28;20044;-92
2023/08/28 08:33:26;;;;;;;4.95;4.45;;;;;;;27.65;63.29;99235.38;5073565;28;20040;-82
2023/08/28 08:35:55;;;;;;;8.43;3.80;;;;;;;27.69;59.46;99234.06;5074214;28;20056;-86
2023/08/28 08:38:23;;;;;;;7.22;3.80;;;;;;;27.71;56.94;99234.41;5075564;28;20044;-87
2023/08/28 08:40:53;;;;;;;5.95;3.75;;;;;;;27.69;60.85;99230.44;5077103;28;20040;-85
2023/08/28 08:43:21;;;;;;;5.75;4.05;;;;;;;27.86;60.95;99236.97;5073580;28;20048;-86
2023/08/28 08:45:53;;;;;;;8.90;4.13;;;;;;;27.72;61.53;99232.41;5073933;28;20052;-87
2023/08/28 08:48:24;;;;;;;7.47;4.57;;;;;;;27.70;63.18;99218.78;5071866;28;20056;-88
2023/08/28 08:51:01;;;;;;;5.63;4.38;;;;;;;27.76;60.95;99227.53;5074243;28;20049;-85
2023/08/28 08:53:32;;;;;;;5.13;4.32;;;;;;;27.96;61.10;99218.28;5073092;28;20045;-89
2023/08/28 08:56:03;;;;;;;8.82;4.53;;;;;;;27.90;60.28;99221.59;5080921;28;20056;-87
2023/08/28 08:58:33;;;;;;;5.35;4.28;;;;;;;27.72;59.84;99223.97;5091687;28;20398;-86
2023/08/28 09:01:04;;;;;;;6.63;4.25;;;;;;;27.76;60.68;99222.69;5094176;28;20067;-86
2023/08/28 09:03:32;;;;;;;6.60;4.38;;;;;;;27.60;60.63;99225.41;5092411;28;20043;-85
2023/08/28 09:06:02;;;;;;;7.22;4.43;;;;;;;27.67;61.95;99235.72;5093632;28;20133;-91
2023/08/28 09:08:38;;;;;;;6.68;4.50;;;;;;;27.34;62.58;99220.25;5093707;28;20042;-87
2023/08/28 09:11:06;;;;;;;8.63;4.97;;;;;;;27.74;63.43;99213.09;5093099;28;20044;-84
2023/08/28 09:13:38;;;;;;;5.70;4.40;;;;;;;27.92;63.67;99215.56;5094063;28;20044;-85
2023/08/28 09:16:06;;;;;;;7.32;4.38;;;;;;;27.99;60.32;99215.41;5093775;28;20055;-82
2023/08/28 09:18:34;;;;;;;9.20;4.93;;;;;;;28.21;60.98;99217.75;5093216;28;20040;-85
2023/08/28 09:21:10;;;;;;;6.80;4.40;;;;;;;28.48;60.01;99210.38;5092830;28;20047;-84
2023/08/28 09:23:46;;;;;;;10.57;5.15;;;;;;;27.98;60.79;99202.56;5081409;28;20040;-86
2023/08/28 09:26:19;;;;;;;6.68;4.57;;;;;;;28.22;62.02;99193.22;5092106;28;20059;-87
2023/08/28 09:29:04;;;;;;;7.53;4.53;;;;;;;28.40;60.49;99201.31;5093206;28;20506;-86
2023/08/28 09:31:36;;;;;;;;;;;;;;;28.04;60.57;99205.66;5093413;28;20051;-89
2023/08/28 09:34:04;;;;;;;8.25;4.72;;;;;;;27.85;61.93;99191.19;5083991;28;19935;-84
2023/08/28 09:36:40;;;;;;;7.13;4.18;;;;;;;27.58;60.91;99200.56;5072100;28;20491;-83
2023/08/28 09:39:13;;;;;;;6.25;4.05;;;;;;;27.90;60.06;99190.69;5073476;28;20037;-87
2023/08/28 09:41:43;;;;;;;8.48;4.15;;;;;;;28.10;59.71;99189.06;5072940;28;20433;-88
2023/08/28 09:44:13;;;;;;;5.22;3.80;;;;;;;28.15;58.42;99188.56;5073625;28;20041;-83
2023/08/28 09:46:44;;;;;;;5.45;3.50;;;;;;;28.15;57.09;99197.78;5071926;28;20491;-84
2023/08/28 09:49:13;;;;;;;9.40;3.95;;;;;;;28.26;58.32;99196.78;5071778;28;20041;-89
2023/08/28 09:51:49;;;;;;;7.47;4.10;;;;;;;28.49;57.15;99197.88;5086483;28;20044;-85
2023/08/28 09:54:17;;;;;;;5.03;3.65;;;;;;;28.55;57.17;99201.75;5072872;28;20075;-85
2023/08/28 09:56:45;;;;;;;5.72;4.53;;;;;;;28.46;57.26;99198.75;5077917;28;20048;-86
2023/08/28 09:59:15;;;;;;;6.78;3.85;;;;;;;28.26;57.05;99196.78;5070816;28;20573;-82
2023/08/28 10:01:46;;;;;;;7.93;3.97;;;;;;;27.93;57.12;99174.16;5071100;28;20048;-85
2023/08/28 10:04:20;;;;;;;5.72;3.58;;;;;;;28.26;57.17;99158.19;5074898;28;20040;-85
2023/08/28 10:06:53;;;;;;;6.10;3.28;;;;;;;28.52;56.49;99158.41;5080881;28;20426;-86
2023/08/28 10:09:25;;;;;;;5.63;2.42;;;;;;;28.59;53.64;99168.69;5085604;28;20513;-87
2023/08/28 10:11:55;;;;;;;6.30;2.75;;;;;;;28.80;56.25;99169.41;5091443;28;20043;-87
2023/08/28 10:14:28;;;;;;;4.93;1.73;;;;;;;28.84;54.80;99164.47;5089282;28;20036;-87
2023/08/28 10:17:02;;;;;;;3.83;2.38;;;;;;;29.08;54.09;99158.69;5077031;28;20056;-86
2023/08/28 10:19:34;;;;;;;4.00;2.10;;;;;;;29.24;52.58;99161.44;5088536;28;20058;-87
2023/08/28 10:22:06;;;;;;;4.28;1.88;;;;;;;29.10;51.64;99161.81;5080498;28;20074;-85
2023/08/28 10:24:36;;;;;;;7.47;2.03;;;;;;;29.08;51.73;99148.19;5083972;28;20044;-82
2023/08/28 10:27:07;;;;;;;2.20;1.80;;;;;;;28.89;51.02;99152.72;5088028;28;20391;-84
2023/08/28 10:29:37;;;;;;;5.57;1.70;;;;;;;28.79;52.35;99148.91;5090864;28;20410;-85
2023/08/28 10:32:09;;;;;;;4.50;1.67;;;;;;;29.03;51.26;99145.13;5092028;28;20040;-85
2023/08/28 10:34:39;;;;;;;3.72;1.60;;;;;;;29.04;52.18;99143.88;5071699;28;20040;-86
2023/08/28 10:37:09;;;;;;;5.20;1.98;;;;;;;29.27;51.29;99122.38;5069947;28;20463;-86
2023/08/28 10:40:01;;;;;;;4.65;1.80;;;;;;;29.37;51.80;99112.81;5070744;28;20067;-89
2023/08/28 10:42:30;;;;;;;4.35;1.90;;;;;;;29.21;49.81;99110.84;5071532;28;20040;-83
2023/08/28 10:44:59;;;;;;;5.57;1.83;;;;;;;29.02;51.01;99115.41;5071871;28;20048;-87
2023/08/28 10:47:30;;;;;;;3.95;1.88;;;;;;;28.95;50.35;99105.09;5071412;28;20044;-87
2023/08/28 10:49:59;;;;;;;6.95;1.63;;;;;;;28.80;51.67;99110.28;5083264;28;20048;-84
2023/08/28 10:52:28;;;;;;;4.68;1.48;;;;;;;28.84;51.04;99102.56;5091203;28;20410;-85
2023/08/28 10:54:59;;;;;;;5.75;1.88;;;;;;;28.78;51.47;99093.06;5090437;28;20040;-83
2023/08/28 10:57:32;;;;;;;5.88;2.17;;;;;;;28.84;50.63;99089.25;5087527;28;20040;-88
2023/08/28 11:00:14;;;;;;;2.35;1.27;;;;;;;28.78;52.16;99079.00;5090393;28;20379;-83
2023/08/28 11:03:08;;;;;;;2.63;1.40;;;;;;;28.85;53.30;99073.16;5090737;28;20429;-83
2023/08/28 11:05:39;;;;;;;3.70;1.80;;;;;;;28.89;51.84;99064.66;5091386;28;20044;-84
2023/08/28 11:08:11;;;;;;;3.75;1.50;;;;;;;29.00;50.99;99064.34;5091025;28;20048;-82
2023/08/28 11:10:49;;;;;;;5.78;1.60;;;;;;;29.06;51.68;99079.47;5091397;28;20047;-82
2023/08/28 11:13:22;;;;;;;4.20;1.65;;;;;;;29.11;51.83;99070.47;5090694;28;20052;-86
2023/08/28 11:16:01;;;;;;;3.97;1.40;;;;;;;29.01;51.01;99065.94;5091531;28;20055;-85
2023/08/28 11:18:31;;;;;;;2.25;1.50;;;;;;;28.91;50.34;99059.34;5091074;28;20040;-88
2023/08/28 11:21:06;;;;;;;3.13;1.52;;;;;;;29.01;51.10;99054.66;5091502;28;20075;-84
2023/08/28 11:23:42;;;;;;;3.95;1.52;;;;;;;29.06;49.99;99054.13;5090801;28;20044;-86
2023/08/28 11:26:10;;;;;;;5.35;1.60;;;;;;;29.15;49.77;99040.19;5089831;28;20060;-89
2023/08/28 11:28:49;;;;;;;4.05;1.45;;;;;;;29.23;49.92;99041.56;5091173;28;20501;-86
2023/08/28 11:31:21;;;;;;;4.00;1.25;;;;;;;29.41;50.60;99056.38;5091326;28;20040;-85
2023/08/28 11:33:49;;;;;;;3.75;1.33;;;;;;;28.92;49.75;99044.84;5090575;28;20047;-82
2023/08/28 11:36:18;;;;;;;2.75;2.03;;;;;;;28.95;49.53;99040.34;5091453;28;20040;-83
2023/08/28 11:38:48;;;;;;;4.60;1.55;;;;;;;28.93;50.14;99043.59;5090955;28;20044;-87